Time;durP1;ratioP1;P1;durP2;ratioP2;P2;SDS_P1;SDS_P2;PMS_P1;PMS_P2;Temp;Humidity;BMP_temperature;BMP_pressure;BME280_temperature;BME280_humidity;BME280_pressure;Samples;Min_cycle;Max_cycle;Signal;HPM_P1;HPM_P2
2021/08/31 00:02:07;;;;;;;;;;;;;;;13.66;100.00;96780.66;5054693;28;20001;-76
2021/08/31 00:04:33;;;;;;;;;;;;;;;13.65;100.00;96787.75;5054674;28;19978;-76
2021/08/31 00:06:59;;;;;;;;;;;;;;;13.65;100.00;96784.31;5054527;28;20417;-75
2021/08/31 00:09:24;;;;;;;;;;;;;;;13.65;100.00;96785.13;5054435;28;19971;-74
2021/08/31 00:11:51;;;;;;;;;;;;;;;13.67;100.00;96795.41;5054585;28;19967;-74
2021/08/31 00:14:17;;;;;;;;;;;;;;;13.66;100.00;96783.28;5054677;28;19959;-76
2021/08/31 00:16:43;;;;;;;;;;;;;;;13.60;99.95;96783.16;5054422;28;20460;-74
2021/08/31 00:19:09;;;;;;;;;;;;;;;13.58;100.00;96787.06;5053459;28;19957;-75
2021/08/31 00:21:34;;;;;;;;;;;;;;;13.56;100.00;96782.00;5054389;28;19978;-76
2021/08/31 00:24:00;;;;;;;;;;;;;;;13.58;100.00;96784.41;5054858;28;20340;-76
2021/08/31 00:26:26;;;;;;;;;;;;;;;13.58;100.00;96792.31;5054339;28;19962;-76
2021/08/31 00:29:05;;;;;;;;;;;;;;;13.60;100.00;96793.69;5053770;28;20336;-75
2021/08/31 00:31:30;;;;;;;;;;;;;;;13.60;100.00;96795.53;5054342;28;19950;-76
2021/08/31 00:33:56;;;;;;;;;;;;;;;13.60;100.00;96791.06;5054272;28;20416;-76
2021/08/31 00:36:22;;;;;;;;;;;;;;;13.60;100.00;96785.00;5053955;28;19959;-76
2021/08/31 00:38:48;;;;;;;;;;;;;;;13.60;100.00;96785.78;5053491;28;19959;-75
2021/08/31 00:41:14;;;;;;;;;;;;;;;13.60;100.00;96790.25;5054211;28;20018;-76
2021/08/31 00:43:44;;;;;;;;;;;;;;;13.62;100.00;96797.94;5054308;28;20008;-75
2021/08/31 00:46:10;;;;;;;;;;;;;;;13.61;100.00;96794.53;5053864;28;19954;-76
2021/08/31 00:48:36;;;;;;;;;;;;;;;13.58;100.00;96792.31;5053767;28;19974;-74
2021/08/31 00:51:02;;;;;;;;;;;;;;;13.57;100.00;96796.81;5053799;28;19964;-76
2021/08/31 00:53:28;;;;;;;;;;;;;;;13.57;100.00;96791.53;5053674;28;20333;-76
2021/08/31 00:55:54;;;;;;;;;;;;;;;13.59;100.00;96794.75;5053052;28;19959;-76
2021/08/31 00:58:20;;;;;;;;;;;;;;;13.60;100.00;96798.16;5053611;28;19974;-76
2021/08/31 01:00:46;;;;;;;;;;;;;;;13.61;100.00;96794.53;5052299;28;19966;-76
2021/08/31 01:03:12;;;;;;;;;;;;;;;13.62;100.00;96792.69;5053050;28;20056;-76
2021/08/31 01:05:38;;;;;;;;;;;;;;;13.62;100.00;96792.69;5053800;28;19958;-76
2021/08/31 01:08:05;;;;;;;;;;;;;;;13.62;100.00;96801.38;5053652;28;19961;-77
2021/08/31 01:10:31;;;;;;;;;;;;;;;13.63;100.00;96791.63;5054024;28;20338;-77
2021/08/31 01:12:57;;;;;;;;;;;;;;;13.64;100.00;96798.53;5053575;28;19960;-76
2021/08/31 01:15:24;;;;;;;;;;;;;;;13.62;100.00;96796.09;5053727;28;20407;-75
2021/08/31 01:17:50;;;;;;;;;;;;;;;13.62;100.00;96795.31;5053310;28;19967;-76
2021/08/31 01:20:16;;;;;;;;;;;;;;;13.61;100.00;96802.44;5053156;28;20522;-76
2021/08/31 01:22:42;;;;;;;;;;;;;;;13.62;100.00;96803.22;5053593;28;20005;-75
2021/08/31 01:25:08;;;;;;;;;;;;;;;13.61;100.00;96802.44;5053523;28;20421;-75
2021/08/31 01:27:34;;;;;;;;;;;;;;;13.62;100.00;96792.69;5053519;28;19964;-77
2021/08/31 01:30:00;;;;;;;;;;;;;;;13.62;100.00;96808.50;5053575;28;19958;-76
2021/08/31 01:32:26;;;;;;;;;;;;;;;13.60;100.00;96801.59;5052657;28;19963;-75
2021/08/31 01:34:52;;;;;;;;;;;;;;;13.60;100.00;96798.97;5053547;28;19959;-74
2021/08/31 01:37:18;;;;;;;;;;;;;;;13.61;100.00;96805.06;5053080;28;20393;-75
2021/08/31 01:39:44;;;;;;;;;;;;;;;13.60;100.00;96798.16;5052351;28;20104;-74
2021/08/31 01:42:10;;;;;;;;;;;;;;;13.59;100.00;96800.00;5053140;28;19958;-74
2021/08/31 01:44:36;;;;;;;;;;;;;;;13.58;100.00;96794.97;5053529;28;19965;-75
2021/08/31 01:47:02;;;;;;;;;;;;;;;13.59;100.00;96793.94;5053228;28;19964;-76
2021/08/31 01:49:28;;;;;;;;;;;;;;;13.58;100.00;96795.75;5053899;28;19963;-76
2021/08/31 01:51:54;;;;;;;;;;;;;;;13.57;100.00;96804.72;5057502;28;19956;-75
2021/08/31 01:54:19;;;;;;;;;;;;;;;13.58;100.00;96800.22;5056965;28;20031;-75
2021/08/31 01:56:45;;;;;;;;;;;;;;;13.58;100.00;96803.66;5057329;28;19960;-74
2021/08/31 01:59:11;;;;;;;;;;;;;;;13.59;100.00;96804.50;5057144;28;19981;-74
2021/08/31 02:01:40;;;;;;;;;;;;;;;13.59;100.00;96804.50;5057058;28;20342;-75
2021/08/31 02:04:07;;;;;;;;;;;;;;;13.58;100.00;96808.13;5056986;28;19966;-75
2021/08/31 02:06:33;;;;;;;;;;;;;;;13.59;100.00;96807.91;5057128;28;19953;-75
2021/08/31 02:08:59;;;;;;;;;;;;;;;13.58;100.00;96806.28;5056462;28;19959;-75
2021/08/31 02:11:25;;;;;;;;;;;;;;;13.58;100.00;96811.56;5056948;28;19998;-75
2021/08/31 02:13:51;;;;;;;;;;;;;;;13.59;100.00;96807.91;5056760;28;19977;-75
2021/08/31 02:16:17;;;;;;;;;;;;;;;13.58;100.00;96811.56;5056867;28;20007;-75
2021/08/31 02:18:43;;;;;;;;;;;;;;;13.59;100.00;96809.75;5056221;28;19971;-76
2021/08/31 02:21:10;;;;;;;;;;;;;;;13.58;100.00;96811.56;5056766;28;20135;-75
2021/08/31 02:23:36;;;;;;;;;;;;;;;13.59;100.00;96815.03;5055616;28;19982;-75
2021/08/31 02:26:02;;;;;;;;;;;;;;;13.59;100.00;96809.75;5056594;28;19960;-75
2021/08/31 02:28:28;;;;;;;;;;;;;;;13.58;100.00;96808.13;5056445;28;19956;-75
2021/08/31 02:30:54;;;;;;;;;;;;;;;13.59;100.00;96809.75;5056501;28;20402;-75
2021/08/31 02:33:20;;;;;;;;;;;;;;;13.57;100.00;96814.44;5055512;28;20033;-76
2021/08/31 02:35:46;;;;;;;;;;;;;;;13.55;100.00;96814.66;5057111;28;19999;-75
2021/08/31 02:38:11;;;;;;;;;;;;;;;13.55;100.00;96819.16;5056513;28;20409;-75
2021/08/31 02:40:37;;;;;;;;;;;;;;;13.54;100.00;96825.44;5056298;28;20000;-75
2021/08/31 02:43:03;;;;;;;;;;;;;;;13.52;100.00;96825.69;5055501;28;19981;-74
2021/08/31 02:45:29;;;;;;;;;;;;;;;13.52;100.00;96825.69;5056087;28;19961;-76
2021/08/31 02:47:55;;;;;;;;;;;;;;;13.51;100.00;96821.44;5056340;28;20053;-76
2021/08/31 02:50:21;;;;;;;;;;;;;;;13.53;100.00;96826.47;5056145;28;19971;-76
2021/08/31 02:52:48;;;;;;;;;;;;;;;13.54;100.00;96820.16;5056057;28;20473;-76
2021/08/31 02:55:14;;;;;;;;;;;;;;;13.52;100.00;96830.94;5055945;28;20317;-75
2021/08/31 02:57:40;;;;;;;;;;;;;;;13.52;100.00;96825.69;5055893;28;19973;-76
2021/08/31 03:00:07;;;;;;;;;;;;;;;13.53;100.00;96826.47;5055704;28;19966;-76
2021/08/31 03:02:33;;;;;;;;;;;;;;;13.54;100.00;96823.63;5055394;28;19969;-76
2021/08/31 03:04:59;;;;;;;;;;;;;;;13.53;100.00;96822.00;5053792;28;20329;-76
2021/08/31 03:07:25;;;;;;;;;;;;;;;13.54;100.00;96828.06;5055850;28;19958;-76
2021/08/31 03:09:51;;;;;;;;;;;;;;;13.53;100.00;96821.19;5055856;28;19954;-76
2021/08/31 03:12:17;;;;;;;;;;;;;;;13.52;100.00;96824.84;5055723;28;19965;-76
2021/08/31 03:14:42;;;;;;;;;;;;;;;13.54;100.00;96830.69;5055476;28;20423;-76
2021/08/31 03:17:09;;;;;;;;;;;;;;;13.54;100.00;96822.78;5055819;28;20059;-76
2021/08/31 03:19:35;;;;;;;;;;;;;;;13.54;100.00;96828.88;5055543;28;20337;-75
2021/08/31 03:22:02;;;;;;;;;;;;;;;13.55;100.00;96830.47;5055723;28;19985;-75
2021/08/31 03:24:29;;;;;;;;;;;;;;;13.55;100.00;96829.69;5043506;28;19961;-75
2021/08/31 03:26:55;;;;;;;;;;;;;;;13.56;100.00;96826.81;5055573;28;19968;-76
2021/08/31 03:29:21;;;;;;;;;;;;;;;13.57;100.00;96825.78;5055178;28;19957;-75
2021/08/31 03:31:47;;;;;;;;;;;;;;;13.58;100.00;96837.13;5055554;28;19969;-75
2021/08/31 03:34:13;;;;;;;;;;;;;;;13.58;100.00;96835.28;5055322;28;19970;-75
2021/08/31 03:36:39;;;;;;;;;;;;;;;13.58;100.00;96837.91;5054180;28;19965;-75
2021/08/31 03:39:05;;;;;;;;;;;;;;;13.60;100.00;96845.59;5054998;28;20042;-75
2021/08/31 03:41:31;;;;;;;;;;;;;;;13.57;100.00;96838.97;5054018;28;20321;-75
2021/08/31 03:43:57;;;;;;;;;;;;;;;13.57;100.00;96846.88;5054288;28;19969;-75
2021/08/31 03:46:23;;;;;;;;;;;;;;;13.58;100.00;96850.31;5055088;28;20054;-75
2021/08/31 03:48:49;;;;;;;;;;;;;;;13.58;100.00;96850.31;5055272;28;20437;-75
2021/08/31 03:51:15;;;;;;;;;;;;;;;13.58;100.00;96845.81;5054833;28;19965;-75
2021/08/31 03:53:41;;;;;;;;;;;;;;;13.59;100.00;96850.09;5055507;28;19968;-75
2021/08/31 03:56:07;;;;;;;;;;;;;;;13.60;100.00;96849.03;5053858;28;19966;-75
2021/08/31 03:58:33;;;;;;;;;;;;;;;13.60;100.00;96848.25;5054985;28;19978;-75
2021/08/31 04:00:59;;;;;;;;;;;;;;;13.60;100.00;96851.69;5054820;28;20330;-75
2021/08/31 04:03:25;;;;;;;;;;;;;;;13.60;100.00;96842.97;5053724;28;19956;-76
2021/08/31 04:05:51;;;;;;;;;;;;;;;13.60;100.00;96850.88;5055025;28;19976;-76
2021/08/31 04:08:17;;;;;;;;;;;;;;;13.60;100.00;96850.88;5054422;28;20307;-75
2021/08/31 04:10:42;;;;;;;;;;;;;;;13.59;100.00;96850.09;5054708;28;19988;-75
2021/08/31 04:13:12;;;;;;;;;;;;;;;13.60;100.00;96858.78;5053726;28;19979;-75
2021/08/31 04:15:38;;;;;;;;;;;;;;;13.59;100.00;96857.19;5054476;28;19966;-75
2021/08/31 04:18:04;;;;;;;;;;;;;;;13.59;100.00;96860.63;5053731;28;20022;-75
2021/08/31 04:20:30;;;;;;;;;;;;;;;13.59;100.00;96857.19;5053629;28;19961;-75
2021/08/31 04:22:56;;;;;;;;;;;;;;;13.57;100.00;96860.03;5052478;28;19993;-74
2021/08/31 04:25:22;;;;;;;;;;;;;;;13.59;100.00;96865.09;5054091;28;19990;-74
2021/08/31 04:27:49;;;;;;;;;;;;;;;13.59;100.00;96868.53;5054769;28;19982;-74
2021/08/31 04:30:15;;;;;;;;;;;;;;;13.59;100.00;96867.72;5054656;28;19963;-74
2021/08/31 04:32:41;;;;;;;;;;;;;;;13.58;100.00;96861.63;5054178;28;19965;-74
2021/08/31 04:35:07;;;;;;;;;;;;;;;13.58;100.00;96866.09;5054415;28;19968;-74
2021/08/31 04:37:33;;;;;;;;;;;;;;;13.59;100.00;96870.38;5054095;28;19969;-74
2021/08/31 04:39:59;;;;;;;;;;;;;;;13.57;100.00;96857.41;5053995;28;20385;-74
2021/08/31 04:42:26;;;;;;;;;;;;;;;13.57;100.00;96869.78;5054265;28;20303;-74
2021/08/31 04:44:52;;;;;;;;;;;;;;;13.56;100.00;96868.97;5054588;28;19955;-74
2021/08/31 04:47:18;;;;;;;;;;;;;;;13.56;100.00;96868.16;5054072;28;19985;-74
2021/08/31 04:49:43;;;;;;;;;;;;;;;13.56;100.00;96876.88;5053178;28;19973;-74
2021/08/31 04:52:09;;;;;;;;;;;;;;;13.57;100.00;96869.78;5053836;28;19996;-74
2021/08/31 04:54:35;;;;;;;;;;;;;;;13.56;100.00;96871.59;5053702;28;19972;-74
2021/08/31 04:57:01;;;;;;;;;;;;;;;13.56;100.00;96876.88;5053936;28;20044;-74
2021/08/31 04:59:27;;;;;;;;;;;;;;;13.58;100.00;96879.28;5053403;28;20536;-74
2021/08/31 05:01:53;;;;;;;;;;;;;;;13.57;100.00;96873.22;5053596;28;19968;-74
2021/08/31 05:04:19;;;;;;;;;;;;;;;13.58;100.00;96869.53;5053826;28;20025;-74
2021/08/31 05:06:45;;;;;;;;;;;;;;;13.57;100.00;96875.06;5053672;28;19965;-74
2021/08/31 05:09:11;;;;;;;;;;;;;;;13.56;100.00;96874.22;5053221;28;20423;-74
2021/08/31 05:11:37;;;;;;;;;;;;;;;13.57;100.00;96880.34;5053871;28;19983;-74
2021/08/31 05:14:03;;;;;;;;;;;;;;;13.56;100.00;96878.72;5053448;28;20324;-77
2021/08/31 05:16:29;;;;;;;;;;;;;;;13.57;100.00;96875.06;5053675;28;19966;-76
2021/08/31 05:18:55;;;;;;;;;;;;;;;13.56;100.00;96879.50;5053503;28;19990;-76
2021/08/31 05:21:21;;;;;;;;;;;;;;;13.57;100.00;96882.97;5052528;28;20450;-77
2021/08/31 05:23:47;;;;;;;;;;;;;;;13.58;100.00;96884.56;5053341;28;19973;-75
2021/08/31 05:26:13;;;;;;;;;;;;;;;13.58;100.00;96888.00;5053560;28;19972;-75
2021/08/31 05:28:39;;;;;;;;;;;;;;;13.58;100.00;96888.00;5053730;28;20072;-75
2021/08/31 05:31:05;;;;;;;;;;;;;;;13.56;100.00;96890.03;5053622;28;20427;-75
2021/08/31 05:33:31;;;;;;;;;;;;;;;13.57;100.00;96893.50;5052166;28;20423;-75
2021/08/31 05:35:57;;;;;;;;;;;;;;;13.57;100.00;96893.50;5053380;28;19973;-75
2021/08/31 05:38:23;;;;;;;;;;;;;;;13.56;100.00;96891.88;5053284;28;20010;-75
2021/08/31 05:40:49;;;;;;;;;;;;;;;13.56;100.00;96897.94;5053430;28;20422;-75
2021/08/31 05:43:15;;;;;;;;;;;;;;;13.56;100.00;96905.06;5053396;28;19970;-76
2021/08/31 05:45:41;;;;;;;;;;;;;;;13.56;100.00;96902.44;5052896;28;19969;-76
2021/08/31 05:48:07;;;;;;;;;;;;;;;13.55;100.00;96904.25;5053373;28;20502;-75
2021/08/31 05:50:33;;;;;;;;;;;;;;;13.54;100.00;96907.13;5053081;28;19975;-76
2021/08/31 05:52:59;;;;;;;;;;;;;;;13.54;100.00;96899.22;5053034;28;19974;-76
2021/08/31 05:55:25;;;;;;;;;;;;;;;13.54;100.00;96910.56;5053370;28;20027;-76
2021/08/31 05:57:51;;;;;;;;;;;;;;;13.53;100.00;96906.31;5053318;28;19992;-75
2021/08/31 06:00:16;;;;;;;;;;;;;;;13.55;100.00;96914.00;5053655;28;19973;-74
2021/08/31 06:02:44;;;;;;;;;;;;;;;13.52;100.00;96912.63;5053245;28;19973;-74
2021/08/31 06:05:10;;;;;;;;;;;;;;;13.51;100.00;96918.91;5053384;28;19980;-75
2021/08/31 06:07:38;;;;;;;;;;;;;;;13.50;100.00;96919.13;5052871;28;19976;-75
2021/08/31 06:10:04;;;;;;;;;;;;;;;13.50;100.00;96921.75;5053420;28;19980;-75
2021/08/31 06:12:30;;;;;;;;;;;;;;;13.49;100.00;96918.34;5051319;28;19980;-75
2021/08/31 06:14:56;;;;;;;;;;;;;;;13.51;100.00;96923.38;5053188;28;19965;-75
2021/08/31 06:17:22;;;;;;;;;;;;;;;13.52;100.00;96924.97;5053089;28;20409;-76
2021/08/31 06:19:49;;;;;;;;;;;;;;;13.54;100.00;96926.38;5052885;28;19989;-76
2021/08/31 06:22:15;;;;;;;;;;;;;;;13.56;100.00;96921.66;5052463;28;20004;-76
2021/08/31 06:24:41;;;;;;;;;;;;;;;13.58;100.00;96930.16;5053200;28;20358;-76
2021/08/31 06:27:07;;;;;;;;;;;;;;;13.61;100.00;96934.19;5053169;28;19978;-76
2021/08/31 06:29:34;;;;;;;;;;;;;;;13.67;100.00;96935.09;5052920;28;19964;-76
2021/08/31 06:32:00;;;;;;;;;;;;;;;13.68;100.00;96939.38;5052798;28;19974;-76
2021/08/31 06:34:26;;;;;;;;;;;;;;;13.69;100.00;96947.06;5052461;28;19980;-76
2021/08/31 06:36:52;;;;;;;;;;;;;;;13.72;100.00;96951.06;5054383;28;19973;-76
2021/08/31 06:39:17;;;;;;;;;;;;;;;13.72;100.00;96951.06;5056530;28;20353;-76
2021/08/31 06:41:43;;;;;;;;;;;;;;;13.74;100.00;96952.44;5056512;28;19970;-76
2021/08/31 06:44:09;;;;;;;;;;;;;;;13.75;100.00;96963.78;5056271;28;19969;-76
2021/08/31 06:46:35;;;;;;;;;;;;;;;13.78;100.00;96958.06;5056286;28;19969;-76
2021/08/31 06:49:01;;;;;;;;;;;;;;;13.80;100.00;96958.66;5055790;28;19973;-75
2021/08/31 06:51:27;;;;;;;;;;;;;;;13.81;100.00;96962.88;5055852;28;19973;-76
2021/08/31 06:53:53;;;;;;;;;;;;;;;13.81;100.00;96963.69;5056152;28;19962;-76
2021/08/31 06:56:22;;;;;;;;;;;;;;;13.86;100.00;96960.38;5055023;28;19976;-76
2021/08/31 06:58:48;;;;;;;;;;;;;;;13.92;100.00;96961.31;5055880;28;19988;-76
2021/08/31 07:01:14;;;;;;;;;;;;;;;13.98;100.00;96961.22;5055955;28;20453;-76
2021/08/31 07:03:40;;;;;;;;;;;;;;;14.02;100.00;96958.91;5055826;28;19976;-76
2021/08/31 07:06:07;;;;;;;;;;;;;;;14.09;100.00;96951.72;5055993;28;20327;-76
2021/08/31 07:08:33;;;;;;;;;;;;;;;14.16;100.00;96956.88;5054711;28;19985;-76
2021/08/31 07:10:59;;;;;;;;;;;;;;;14.19;99.82;96956.41;5056136;28;19969;-76
2021/08/31 07:13:25;;;;;;;;;;;;;;;14.20;99.42;96963.31;5055816;28;20341;-76
2021/08/31 07:15:51;;;;;;;;;;;;;;;14.22;99.63;96963.88;5055785;28;19969;-76
2021/08/31 07:18:17;;;;;;;;;;;;;;;14.20;99.13;96971.22;5055341;28;19999;-76
2021/08/31 07:20:43;;;;;;;;;;;;;;;14.16;98.02;96968.22;5055842;28;19965;-76
2021/08/31 07:23:13;;;;;;;;;;;;;;;14.14;98.93;96965.00;5055839;28;20003;-76
2021/08/31 07:25:42;;;;;;;;;;;;;;;14.14;98.69;96972.13;5055505;28;20346;-76
2021/08/31 07:28:09;;;;;;;;;;;;;;;14.10;97.71;96976.25;5055495;28;19969;-76
2021/08/31 07:30:35;;;;;;;;;;;;;;;14.07;98.42;96980.16;5055509;28;19981;-75
2021/08/31 07:33:02;;;;;;;;;;;;;;;14.04;98.38;96980.59;5055110;28;20354;-75
2021/08/31 07:35:28;;;;;;;;;;;;;;;14.06;99.21;96980.38;5055315;28;19977;-75
2021/08/31 07:37:54;;;;;;;;;;;;;;;14.17;99.45;96975.13;5055496;28;20387;-75
2021/08/31 07:40:20;;;;;;;;;;;;;;;14.33;99.19;96986.03;5055069;28;19969;-75
2021/08/31 07:42:46;;;;;;;;;;;;;;;14.45;98.53;96981.56;5055057;28;20435;-75
2021/08/31 07:45:13;;;;;;;;;;;;;;;14.51;97.92;96996.50;5055148;28;20027;-74
2021/08/31 07:47:39;;;;;;;;;;;;;;;14.52;98.03;96995.44;5054792;28;19992;-75
2021/08/31 07:50:05;;;;;;;;;;;;;;;14.56;98.09;96990.56;5055187;28;20431;-75
2021/08/31 07:52:31;;;;;;;;;;;;;;;14.58;97.43;97002.47;5054746;28;19974;-75
2021/08/31 07:54:57;;;;;;;;;;;;;;;14.62;96.71;96997.56;5055226;28;19988;-74
2021/08/31 07:57:23;;;;;;;;;;;;;;;14.63;96.19;96998.34;5054786;28;20052;-75
2021/08/31 07:59:49;;;;;;;;;;;;;;;14.60;96.05;97004.91;5054872;28;20021;-75
2021/08/31 08:02:15;;;;;;;;;;;;;;;14.57;96.14;97002.69;5054586;28;20315;-75
2021/08/31 08:04:41;;;;;;;;;;;;;;;14.53;96.62;96997.06;5054315;28;19969;-74
2021/08/31 08:07:07;;;;;;;;;;;;;;;14.53;96.49;97004.97;5054584;28;20015;-74
2021/08/31 08:09:34;;;;;;;;;;;;;;;14.56;96.59;97001.09;5054563;28;19980;-75
2021/08/31 08:11:59;;;;;;;;;;;;;;;14.59;95.83;97011.19;5054501;28;19969;-75
2021/08/31 08:14:25;;;;;;;;;;;;;;;14.59;96.37;97017.28;5054597;28;20015;-75
2021/08/31 08:16:51;;;;;;;;;;;;;;;14.63;96.68;97009.69;5054378;28;19973;-75
2021/08/31 08:19:17;;;;;;;;;;;;;;;14.70;97.12;97014.84;5054489;28;19992;-75
2021/08/31 08:21:43;;;;;;;;;;;;;;;14.75;96.39;97010.50;5053054;28;20000;-75
2021/08/31 08:24:09;;;;;;;;;;;;;;;14.80;96.30;97009.81;5053280;28;19980;-75
2021/08/31 08:26:36;;;;;;;;;;;;;;;14.84;93.47;97018.88;5054436;28;19969;-75
2021/08/31 08:29:03;;;;;;;;;;;;;;;14.87;94.54;97013.16;5054115;28;19992;-76
2021/08/31 08:31:29;;;;;;;;;;;;;;;14.91;94.45;97018.75;5045815;28;19970;-75
2021/08/31 08:33:55;;;;;;;;;;;;;;;14.91;92.60;97019.59;5054180;28;19969;-75
2021/08/31 08:36:21;;;;;;;;;;;;;;;14.95;93.93;97020.72;5054593;28;19980;-75
2021/08/31 08:38:47;;;;;;;;;;;;;;;15.01;94.20;97026.91;5054029;28;20456;-75
2021/08/31 08:41:12;;;;;;;;;;;;;;;15.10;94.30;97024.69;5054230;28;19973;-75
2021/08/31 08:43:38;;;;;;;;;;;;;;;15.18;93.75;97022.53;5052702;28;20064;-76
2021/08/31 08:46:06;;;;;;;;;;;;;;;15.21;93.29;97027.34;5054017;28;20052;-76
2021/08/31 08:48:32;;;;;;;;;;;;;;;15.20;93.09;97027.56;5053177;28;19976;-76
2021/08/31 08:51:00;;;;;;;;;;;;;;;15.18;92.20;97027.81;5053707;28;19965;-76
2021/08/31 08:53:26;;;;;;;;;;;;;;;15.18;91.66;97027.00;5053769;28;19980;-76
2021/08/31 08:55:53;;;;;;;;;;;;;;;15.22;92.71;97034.25;5053906;28;20438;-76
2021/08/31 08:58:19;;;;;;;;;;;;;;;15.29;91.71;97028.03;5053637;28;19989;-76
2021/08/31 09:00:58;;;;;;;;;;;;;;;15.33;91.91;97037.06;5053620;28;20330;-76
2021/08/31 09:03:24;;;;;;;;;;;;;;;15.38;91.06;97037.19;5053255;28;19973;-76
2021/08/31 09:06:03;;;;;;;;;;;;;;;15.45;91.97;97044.97;5054039;28;19976;-76
2021/08/31 09:08:29;;;;;;;;;;;;;;;15.48;89.30;97047.16;5052740;28;19972;-76
2021/08/31 09:10:54;;;;;;;;;;;;;;;15.51;89.82;97041.41;5053375;28;19991;-76
2021/08/31 09:13:21;;;;;;;;;;;;;;;15.56;89.62;97049.41;5053071;28;19973;-76
2021/08/31 09:15:47;;;;;;;;;;;;;;;15.61;90.07;97052.19;5053772;28;19974;-76
2021/08/31 09:18:18;;;;;;;;;;;;;;;15.68;88.92;97049.41;5053526;28;20027;-76
2021/08/31 09:20:53;;;;;;;;;;;;;;;15.73;89.39;97045.03;5053387;28;19965;-76
2021/08/31 09:23:20;;;;;;;;;;;;;;;15.78;90.38;97046.97;5052699;28;19992;-76
2021/08/31 09:25:47;;;;;;;;;;;;;;;15.76;89.57;97046.41;5053666;28;19970;-76
2021/08/31 09:28:23;;;;;;;;;;;;;;;15.70;88.64;97066.63;5053515;28;19969;-77
2021/08/31 09:30:58;;;;;;;;;;;;;;;15.64;88.53;97056.97;5053491;28;19969;-77
2021/08/31 09:33:25;;;;;;;;;;;;;;;15.63;88.67;97058.03;5053425;28;20441;-77
2021/08/31 09:36:09;;;;;;;;;;;;;;;15.60;87.74;97067.25;5053438;28;20415;-76
2021/08/31 09:38:40;;;;;;;;;;;;;;;15.61;88.24;97068.84;5053264;28;20000;-77
2021/08/31 09:41:06;;;;;;;;;;;;;;;15.61;87.73;97058.25;5053459;28;20453;-77
2021/08/31 09:43:32;;;;;;;;;;;;;;;15.64;87.28;97056.97;5052702;28;19974;-77
2021/08/31 09:45:57;;;;;;;;;;;;;;;15.63;86.75;97058.84;5053378;28;20016;-77
2021/08/31 09:48:23;;;;;;;;;;;;;;;15.66;86.55;97056.75;5053057;28;19976;-77
2021/08/31 09:50:55;;;;;;;;;;;;;;;15.70;87.35;97053.41;5052794;28;19966;-77
2021/08/31 09:53:23;;;;;;;;;;;;;;;15.73;87.43;97058.25;5053474;28;20338;-77
2021/08/31 09:55:50;;;;;;;;;;;;;;;15.77;87.11;97059.41;5053367;28;19969;-77
2021/08/31 09:58:16;;;;;;;;;;;;;;;15.86;85.66;97056.38;5052933;28;19965;-77
2021/08/31 10:00:43;;;;;;;;;;;;;;;15.93;86.89;97059.69;5052975;28;20023;-77
2021/08/31 10:03:10;;;;;;;;;;;;;;;16.03;86.51;97065.16;5052472;28;19972;-77
2021/08/31 10:05:37;;;;;;;;;;;;;;;16.12;85.57;97062.94;5053487;28;19970;-77
2021/08/31 10:08:04;;;;;;;;;;;;;;;16.20;85.66;97070.47;5053149;28;19981;-77
2021/08/31 10:10:30;;;;;;;;;;;;;;;16.21;84.50;97067.59;5053193;28;19965;-77
2021/08/31 10:12:57;;;;;;;;;;;;;;;16.30;85.15;97060.06;5056713;28;20411;-77
2021/08/31 10:15:23;;;;;;;;;;;;;;;16.37;82.30;97066.00;5056728;28;19973;-77
2021/08/31 10:17:50;;;;;;;;;;;;;;;16.56;82.24;97063.13;5056845;28;20086;-77
2021/08/31 10:20:22;;;;;;;;;;;;;;;16.80;79.69;97056.66;5056826;28;20465;-77
2021/08/31 10:22:48;;;;;;;;;;;;;;;17.09;80.02;97061.00;5056323;28;20000;-77
2021/08/31 10:25:14;;;;;;;;;;;;;;;17.34;81.81;97068.50;5056751;28;20453;-77
2021/08/31 10:27:41;;;;;;;;;;;;;;;17.43;80.06;97070.50;5056669;28;19969;-77
2021/08/31 10:30:13;;;;;;;;;;;;;;;17.50;75.83;97061.56;5056577;28;19984;-77
2021/08/31 10:32:39;;;;;;;;;;;;;;;17.65;78.93;97065.19;5056549;28;19969;-77
2021/08/31 10:35:06;;;;;;;;;;;;;;;17.70;79.02;97060.97;5055700;28;19980;-77
2021/08/31 10:37:51;;;;;;;;;;;;;;;17.75;74.59;97064.50;5056626;28;19969;-77
2021/08/31 10:40:36;;;;;;;;;;;;;;;17.77;76.08;97059.75;5045917;28;19992;-78
2021/08/31 10:43:03;;;;;;;;;;;;;;;18.00;76.18;97058.69;5056367;28;19972;-77
2021/08/31 10:45:58;;;;;;;;;;;;;;;18.31;77.89;97066.13;5056272;28;19985;-77
2021/08/31 10:48:24;;;;;;;;;;;;;;;18.66;76.05;97076.25;5037863;28;19973;-77
2021/08/31 10:50:51;;;;;;;;;;;;;;;18.91;74.37;97065.03;5056003;28;19967;-77
2021/08/31 10:53:43;;;;;;;;;;;;;;;18.98;72.02;97065.63;5056178;28;20443;-77
2021/08/31 10:56:25;;;;;;;;;;;;;;;18.90;74.17;97073.25;5053013;28;19973;-77
2021/08/31 10:59:01;;;;;;;;;;;;;;;18.73;71.89;97065.41;5055778;28;19988;-77
2021/08/31 11:01:27;;;;;;;;;;;;;;;18.51;75.15;97066.31;5054174;28;19969;-77
2021/08/31 11:03:55;;;;;;;;;;;;;;;18.38;71.72;97067.53;5055358;28;20338;-77
2021/08/31 11:06:22;;;;;;;;;;;;;;;18.24;74.89;97071.66;5055886;28;19981;-77
2021/08/31 11:09:22;;;;;;;;;;;;;;;18.12;75.31;97066.53;5054948;28;19988;-77
2021/08/31 11:11:58;;;;;;;;;;;;;;;18.04;75.27;97073.06;5012493;28;19969;-77
2021/08/31 11:14:35;;;;;;;;;;;;;;;17.94;73.15;97080.13;5055610;28;19965;-77
2021/08/31 11:17:01;;;;;;;;;;;;;;;17.79;75.45;97084.19;5055919;28;20329;-78
2021/08/31 11:19:28;;;;;;;;;;;;;;;17.76;75.95;97087.31;5055740;28;19985;-77
2021/08/31 11:21:55;;;;;;;;;;;;;;;17.68;76.80;97081.66;5055096;28;19995;-77
2021/08/31 11:24:22;;;;;;;;;;;;;;;17.57;75.97;97092.13;5055587;28;19974;-77
2021/08/31 11:26:48;;;;;;;;;;;;;;;17.48;77.81;97088.31;5055855;28;19976;-77
2021/08/31 11:29:14;;;;;;;;;;;;;;;17.47;75.48;97088.56;5054702;28;19974;-77
2021/08/31 11:31:40;;;;;;;;;;;;;;;17.49;77.46;97095.25;5055629;28;19973;-77
2021/08/31 11:34:12;;;;;;;;;;;;;;;17.52;77.35;97084.13;5055400;28;19966;-77
2021/08/31 11:36:40;;;;;;;;;;;;;;;17.51;77.15;97087.00;5054578;28;19969;-77
2021/08/31 11:39:07;;;;;;;;;;;;;;;17.48;76.25;97087.53;5054056;28;20008;-77
2021/08/31 11:41:37;;;;;;;;;;;;;;;17.43;76.15;97090.91;5055435;28;19965;-77
2021/08/31 11:44:11;;;;;;;;;;;;;;;17.35;77.26;97094.00;5055192;28;19969;-77
2021/08/31 11:46:37;;;;;;;;;;;;;;;17.25;74.93;97094.63;5055387;28;19968;-77
2021/08/31 11:49:07;;;;;;;;;;;;;;;17.16;75.66;97090.81;5054952;28;20034;-77
2021/08/31 11:51:33;;;;;;;;;;;;;;;17.08;77.81;97093.88;5054756;28;19969;-77
2021/08/31 11:54:03;;;;;;;;;;;;;;;17.02;77.81;97093.78;5055162;28;19988;-77
2021/08/31 11:56:29;;;;;;;;;;;;;;;16.99;78.56;97104.88;5054289;28;19969;-77
2021/08/31 11:58:55;;;;;;;;;;;;;;;16.95;77.31;97108.28;5054809;28;20458;-77
2021/08/31 12:01:28;;;;;;;;;;;;;;;16.90;77.77;97106.31;5054758;28;19973;-77
2021/08/31 12:03:54;;;;;;;;;;;;;;;16.90;76.99;97111.63;5054964;28;19976;-77
2021/08/31 12:06:20;;;;;;;;;;;;;;;16.90;77.21;97119.56;5054015;28;19973;-77
2021/08/31 12:08:47;;;;;;;;;;;;;;;16.86;77.24;97122.94;5054761;28;19977;-77
2021/08/31 12:11:14;;;;;;;;;;;;;;;16.79;76.56;97115.13;5054784;28;19973;-77
2021/08/31 12:13:44;;;;;;;;;;;;;;;16.76;76.42;97119.06;5053613;28;19965;-77
2021/08/31 12:16:12;;;;;;;;;;;;;;;16.77;76.80;97115.38;5054485;28;19969;-77
2021/08/31 12:18:38;;;;;;;;;;;;;;;16.78;76.32;97116.19;5053351;28;20443;-77
2021/08/31 12:21:14;;;;;;;;;;;;;;;16.81;76.58;97119.16;5054068;28;19997;-77
2021/08/31 12:23:40;;;;;;;;;;;;;;;16.83;76.04;97122.38;5054170;28;20370;-77
2021/08/31 12:26:07;;;;;;;;;;;;;;;16.85;77.34;97119.50;5054691;28;19980;-77
2021/08/31 12:28:33;;;;;;;;;;;;;;;16.89;76.26;97123.28;5054095;28;19965;-77
2021/08/31 12:31:08;;;;;;;;;;;;;;;16.93;76.45;97126.25;5054237;28;20435;-77
2021/08/31 12:33:34;;;;;;;;;;;;;;;16.93;75.31;97121.75;5053371;28;19965;-77
2021/08/31 12:36:04;;;;;;;;;;;;;;;16.98;76.71;97121.03;5054520;28;20403;-77
2021/08/31 12:38:37;;;;;;;;;;;;;;;17.07;77.19;97122.19;5054176;28;19977;-77
2021/08/31 12:41:27;;;;;;;;;;;;;;;17.20;76.64;97121.09;5053890;28;19985;-77